sensor_id;sensor_type;location;lat;lon;timestamp;P1;durP1;ratioP1;P2;durP2;ratioP2
37753;SDS011;23596;52.520;13.464;2022-08-21T00:01:47;17.03;;;7.70;;
37753;SDS011;23596;52.520;13.464;2022-08-21T00:04:13;14.83;;;8.73;;
37753;SDS011;23596;52.520;13.464;2022-08-21T00:06:39;20.23;;;7.87;;
37753;SDS011;23596;52.520;13.464;2022-08-21T00:09:05;15.03;;;8.40;;
37753;SDS011;23596;52.520;13.464;2022-08-21T00:11:32;19.48;;;7.78;;
37753;SDS011;23596;52.520;13.464;2022-08-21T00:14:00;13.80;;;7.95;;
37753;SDS011;23596;52.520;13.464;2022-08-21T00:16:26;23.52;;;8.52;;
37753;SDS011;23596;52.520;13.464;2022-08-21T00:18:52;13.93;;;8.23;;
37753;SDS011;23596;52.520;13.464;2022-08-21T00:21:17;14.10;;;8.60;;
37753;SDS011;23596;52.520;13.464;2022-08-21T00:23:43;15.80;;;8.87;;
37753;SDS011;23596;52.520;13.464;2022-08-21T00:26:09;14.40;;;8.30;;
37753;SDS011;23596;52.520;13.464;2022-08-21T00:28:34;15.37;;;9.57;;
37753;SDS011;23596;52.520;13.464;2022-08-21T00:31:00;28.23;;;8.80;;
37753;SDS011;23596;52.520;13.464;2022-08-21T00:33:28;19.30;;;9.20;;
37753;SDS011;23596;52.520;13.464;2022-08-21T00:35:55;14.63;;;8.77;;
37753;SDS011;23596;52.520;13.464;2022-08-21T00:38:21;13.35;;;8.63;;
37753;SDS011;23596;52.520;13.464;2022-08-21T00:40:48;17.20;;;9.77;;
37753;SDS011;23596;52.520;13.464;2022-08-21T00:43:21;20.08;;;8.80;;
37753;SDS011;23596;52.520;13.464;2022-08-21T00:45:49;21.23;;;9.38;;
37753;SDS011;23596;52.520;13.464;2022-08-21T00:48:16;13.10;;;8.05;;
37753;SDS011;23596;52.520;13.464;2022-08-21T00:50:44;19.20;;;8.80;;
37753;SDS011;23596;52.520;13.464;2022-08-21T00:53:13;15.95;;;8.65;;
37753;SDS011;23596;52.520;13.464;2022-08-21T00:55:39;11.52;;;7.80;;
37753;SDS011;23596;52.520;13.464;2022-08-21T00:58:07;14.15;;;7.65;;
37753;SDS011;23596;52.520;13.464;2022-08-21T01:00:35;21.33;;;8.05;;
37753;SDS011;23596;52.520;13.464;2022-08-21T01:03:05;15.27;;;7.68;;
37753;SDS011;23596;52.520;13.464;2022-08-21T01:05:34;15.43;;;8.05;;
37753;SDS011;23596;52.520;13.464;2022-08-21T01:07:59;17.00;;;8.53;;
37753;SDS011;23596;52.520;13.464;2022-08-21T01:10:25;15.37;;;8.73;;
37753;SDS011;23596;52.520;13.464;2022-08-21T01:12:52;18.37;;;9.33;;
37753;SDS011;23596;52.520;13.464;2022-08-21T01:15:20;14.35;;;8.07;;
37753;SDS011;23596;52.520;13.464;2022-08-21T01:17:49;14.70;;;8.05;;
37753;SDS011;23596;52.520;13.464;2022-08-21T01:20:15;12.63;;;8.57;;
37753;SDS011;23596;52.520;13.464;2022-08-21T01:22:41;19.67;;;9.07;;
37753;SDS011;23596;52.520;13.464;2022-08-21T01:25:07;15.30;;;8.43;;
37753;SDS011;23596;52.520;13.464;2022-08-21T01:27:34;13.50;;;8.68;;
37753;SDS011;23596;52.520;13.464;2022-08-21T01:30:14;12.43;;;8.10;;
37753;SDS011;23596;52.520;13.464;2022-08-21T01:32:44;14.77;;;7.13;;
37753;SDS011;23596;52.520;13.464;2022-08-21T01:35:11;9.73;;;5.65;;
37753;SDS011;23596;52.520;13.464;2022-08-21T01:37:38;12.55;;;5.72;;
37753;SDS011;23596;52.520;13.464;2022-08-21T01:40:05;16.45;;;6.53;;
37753;SDS011;23596;52.520;13.464;2022-08-21T01:42:32;16.52;;;6.32;;
37753;SDS011;23596;52.520;13.464;2022-08-21T01:44:58;22.80;;;6.13;;
37753;SDS011;23596;52.520;13.464;2022-08-21T01:47:23;16.33;;;6.63;;
37753;SDS011;23596;52.520;13.464;2022-08-21T01:49:49;10.43;;;5.90;;
37753;SDS011;23596;52.520;13.464;2022-08-21T01:52:14;10.13;;;6.90;;
37753;SDS011;23596;52.520;13.464;2022-08-21T01:54:40;17.93;;;6.67;;
37753;SDS011;23596;52.520;13.464;2022-08-21T01:57:07;14.60;;;6.30;;
37753;SDS011;23596;52.520;13.464;2022-08-21T01:59:33;13.82;;;6.70;;
37753;SDS011;23596;52.520;13.464;2022-08-21T02:01:59;13.47;;;7.43;;
37753;SDS011;23596;52.520;13.464;2022-08-21T02:04:24;13.13;;;6.37;;
37753;SDS011;23596;52.520;13.464;2022-08-21T02:06:50;17.33;;;6.67;;
37753;SDS011;23596;52.520;13.464;2022-08-21T02:09:16;16.90;;;6.17;;
37753;SDS011;23596;52.520;13.464;2022-08-21T02:11:42;11.98;;;6.70;;
37753;SDS011;23596;52.520;13.464;2022-08-21T02:14:09;11.35;;;6.07;;
37753;SDS011;23596;52.520;13.464;2022-08-21T02:16:36;10.85;;;6.43;;
37753;SDS011;23596;52.520;13.464;2022-08-21T02:19:02;16.97;;;6.63;;
37753;SDS011;23596;52.520;13.464;2022-08-21T02:21:28;20.10;;;6.73;;
37753;SDS011;23596;52.520;13.464;2022-08-21T02:23:53;11.97;;;5.40;;
37753;SDS011;23596;52.520;13.464;2022-08-21T02:26:19;9.40;;;5.67;;
37753;SDS011;23596;52.520;13.464;2022-08-21T02:28:44;17.40;;;6.57;;
37753;SDS011;23596;52.520;13.464;2022-08-21T02:31:10;14.77;;;6.40;;
37753;SDS011;23596;52.520;13.464;2022-08-21T02:33:37;18.38;;;6.05;;
37753;SDS011;23596;52.520;13.464;2022-08-21T02:36:03;9.88;;;6.03;;
37753;SDS011;23596;52.520;13.464;2022-08-21T02:38:30;15.07;;;5.70;;
37753;SDS011;23596;52.520;13.464;2022-08-21T02:41:03;12.05;;;5.88;;
37753;SDS011;23596;52.520;13.464;2022-08-21T02:43:30;14.30;;;5.95;;
37753;SDS011;23596;52.520;13.464;2022-08-21T02:45:57;15.93;;;6.00;;
37753;SDS011;23596;52.520;13.464;2022-08-21T02:48:24;16.15;;;5.93;;
37753;SDS011;23596;52.520;13.464;2022-08-21T02:50:54;17.08;;;5.50;;
37753;SDS011;23596;52.520;13.464;2022-08-21T02:53:22;16.60;;;4.70;;
37753;SDS011;23596;52.520;13.464;2022-08-21T02:55:49;11.17;;;5.37;;
37753;SDS011;23596;52.520;13.464;2022-08-21T02:58:17;9.80;;;4.72;;
37753;SDS011;23596;52.520;13.464;2022-08-21T03:00:48;11.48;;;5.10;;
37753;SDS011;23596;52.520;13.464;2022-08-21T03:03:14;13.40;;;5.13;;
37753;SDS011;23596;52.520;13.464;2022-08-21T03:05:41;16.67;;;4.43;;
37753;SDS011;23596;52.520;13.464;2022-08-21T03:08:08;12.63;;;4.80;;
37753;SDS011;23596;52.520;13.464;2022-08-21T03:10:37;10.57;;;4.78;;
37753;SDS011;23596;52.520;13.464;2022-08-21T03:13:04;23.95;;;5.75;;
37753;SDS011;23596;52.520;13.464;2022-08-21T03:15:31;9.25;;;4.00;;
37753;SDS011;23596;52.520;13.464;2022-08-21T03:17:57;7.70;;;3.40;;
37753;SDS011;23596;52.520;13.464;2022-08-21T03:20:23;19.93;;;4.20;;
37753;SDS011;23596;52.520;13.464;2022-08-21T03:22:51;9.07;;;3.70;;
37753;SDS011;23596;52.520;13.464;2022-08-21T03:25:17;16.75;;;5.00;;
37753;SDS011;23596;52.520;13.464;2022-08-21T03:27:45;14.70;;;4.18;;
37753;SDS011;23596;52.520;13.464;2022-08-21T03:30:12;15.02;;;4.20;;
37753;SDS011;23596;52.520;13.464;2022-08-21T03:32:38;13.20;;;3.50;;
37753;SDS011;23596;52.520;13.464;2022-08-21T03:35:04;15.00;;;3.65;;
37753;SDS011;23596;52.520;13.464;2022-08-21T03:37:30;10.80;;;3.93;;
37753;SDS011;23596;52.520;13.464;2022-08-21T03:39:55;24.23;;;4.33;;
37753;SDS011;23596;52.520;13.464;2022-08-21T03:42:21;12.77;;;3.53;;
37753;SDS011;23596;52.520;13.464;2022-08-21T03:44:48;10.38;;;3.30;;
37753;SDS011;23596;52.520;13.464;2022-08-21T03:47:13;8.77;;;3.60;;
37753;SDS011;23596;52.520;13.464;2022-08-21T03:49:39;9.73;;;3.23;;
37753;SDS011;23596;52.520;13.464;2022-08-21T03:52:05;7.90;;;3.30;;
37753;SDS011;23596;52.520;13.464;2022-08-21T03:54:31;9.80;;;3.83;;
37753;SDS011;23596;52.520;13.464;2022-08-21T03:56:57;12.07;;;4.23;;
37753;SDS011;23596;52.520;13.464;2022-08-21T03:59:22;9.57;;;3.90;;
37753;SDS011;23596;52.520;13.464;2022-08-21T04:01:57;12.82;;;4.00;;
37753;SDS011;23596;52.520;13.464;2022-08-21T04:04:24;9.90;;;3.63;;
37753;SDS011;23596;52.520;13.464;2022-08-21T04:06:51;9.95;;;3.65;;
37753;SDS011;23596;52.520;13.464;2022-08-21T04:09:17;13.23;;;3.83;;
37753;SDS011;23596;52.520;13.464;2022-08-21T04:14:10;12.77;;;3.38;;
37753;SDS011;23596;52.520;13.464;2022-08-21T04:16:37;10.05;;;4.03;;
37753;SDS011;23596;52.520;13.464;2022-08-21T04:19:02;10.17;;;3.40;;
37753;SDS011;23596;52.520;13.464;2022-08-21T04:21:28;13.27;;;3.83;;
37753;SDS011;23596;52.520;13.464;2022-08-21T04:23:55;24.88;;;4.05;;
37753;SDS011;23596;52.520;13.464;2022-08-21T04:26:21;11.47;;;4.00;;
37753;SDS011;23596;52.520;13.464;2022-08-21T04:28:47;9.02;;;3.30;;
37753;SDS011;23596;52.520;13.464;2022-08-21T04:31:12;7.77;;;3.57;;
37753;SDS011;23596;52.520;13.464;2022-08-21T04:33:38;15.13;;;3.67;;
37753;SDS011;23596;52.520;13.464;2022-08-21T04:36:04;9.40;;;2.85;;
37753;SDS011;23596;52.520;13.464;2022-08-21T04:38:30;11.63;;;3.60;;
37753;SDS011;23596;52.520;13.464;2022-08-21T04:40:58;6.45;;;2.80;;
37753;SDS011;23596;52.520;13.464;2022-08-21T04:43:24;8.13;;;3.03;;
37753;SDS011;23596;52.520;13.464;2022-08-21T04:45:50;12.67;;;2.80;;
37753;SDS011;23596;52.520;13.464;2022-08-21T04:48:17;12.25;;;2.78;;
37753;SDS011;23596;52.520;13.464;2022-08-21T04:50:50;12.85;;;3.63;;
37753;SDS011;23596;52.520;13.464;2022-08-21T04:53:26;13.55;;;3.30;;
37753;SDS011;23596;52.520;13.464;2022-08-21T04:56:00;7.88;;;2.70;;
37753;SDS011;23596;52.520;13.464;2022-08-21T04:58:33;17.17;;;3.83;;
37753;SDS011;23596;52.520;13.464;2022-08-21T05:00:59;10.88;;;3.13;;
37753;SDS011;23596;52.520;13.464;2022-08-21T05:03:26;12.52;;;3.63;;
37753;SDS011;23596;52.520;13.464;2022-08-21T05:08:19;10.77;;;2.58;;
37753;SDS011;23596;52.520;13.464;2022-08-21T05:10:48;9.07;;;2.88;;
37753;SDS011;23596;52.520;13.464;2022-08-21T05:13:14;9.48;;;2.53;;
37753;SDS011;23596;52.520;13.464;2022-08-21T05:15:40;14.13;;;3.13;;
37753;SDS011;23596;52.520;13.464;2022-08-21T05:18:07;12.43;;;3.38;;
37753;SDS011;23596;52.520;13.464;2022-08-21T05:20:33;11.17;;;3.43;;
37753;SDS011;23596;52.520;13.464;2022-08-21T05:23:06;7.85;;;2.55;;
37753;SDS011;23596;52.520;13.464;2022-08-21T05:25:36;8.00;;;2.70;;
37753;SDS011;23596;52.520;13.464;2022-08-21T05:28:03;17.17;;;2.95;;
37753;SDS011;23596;52.520;13.464;2022-08-21T05:30:29;9.93;;;2.83;;
37753;SDS011;23596;52.520;13.464;2022-08-21T05:32:58;7.77;;;2.47;;
37753;SDS011;23596;52.520;13.464;2022-08-21T05:35:25;8.90;;;2.78;;
37753;SDS011;23596;52.520;13.464;2022-08-21T05:37:52;12.35;;;3.65;;
37753;SDS011;23596;52.520;13.464;2022-08-21T05:40:17;9.63;;;2.60;;
37753;SDS011;23596;52.520;13.464;2022-08-21T05:42:43;11.32;;;2.50;;
37753;SDS011;23596;52.520;13.464;2022-08-21T05:45:09;18.00;;;3.00;;
37753;SDS011;23596;52.520;13.464;2022-08-21T05:47:35;11.88;;;3.70;;
37753;SDS011;23596;52.520;13.464;2022-08-21T05:50:01;11.67;;;2.47;;
37753;SDS011;23596;52.520;13.464;2022-08-21T05:52:27;9.70;;;2.50;;
37753;SDS011;23596;52.520;13.464;2022-08-21T05:54:52;13.60;;;2.43;;
37753;SDS011;23596;52.520;13.464;2022-08-21T05:59:45;11.60;;;2.65;;
37753;SDS011;23596;52.520;13.464;2022-08-21T06:02:11;14.00;;;2.77;;
37753;SDS011;23596;52.520;13.464;2022-08-21T06:04:39;21.00;;;3.63;;
37753;SDS011;23596;52.520;13.464;2022-08-21T06:07:06;8.75;;;2.55;;
37753;SDS011;23596;52.520;13.464;2022-08-21T06:09:31;9.05;;;2.55;;
37753;SDS011;23596;52.520;13.464;2022-08-21T06:11:57;11.67;;;2.77;;
37753;SDS011;23596;52.520;13.464;2022-08-21T06:14:23;8.07;;;2.50;;
37753;SDS011;23596;52.520;13.464;2022-08-21T06:16:49;15.70;;;2.40;;
37753;SDS011;23596;52.520;13.464;2022-08-21T06:19:14;10.87;;;2.53;;
37753;SDS011;23596;52.520;13.464;2022-08-21T06:21:40;9.10;;;1.93;;
37753;SDS011;23596;52.520;13.464;2022-08-21T06:24:06;12.93;;;2.37;;
37753;SDS011;23596;52.520;13.464;2022-08-21T06:26:32;11.97;;;2.60;;
37753;SDS011;23596;52.520;13.464;2022-08-21T06:28:58;16.50;;;2.60;;
37753;SDS011;23596;52.520;13.464;2022-08-21T06:31:24;10.20;;;2.10;;
37753;SDS011;23596;52.520;13.464;2022-08-21T06:33:51;10.00;;;1.80;;
37753;SDS011;23596;52.520;13.464;2022-08-21T06:36:18;7.10;;;1.58;;
37753;SDS011;23596;52.520;13.464;2022-08-21T06:38:45;7.30;;;2.10;;
37753;SDS011;23596;52.520;13.464;2022-08-21T06:41:11;8.30;;;1.93;;
37753;SDS011;23596;52.520;13.464;2022-08-21T06:43:38;7.20;;;1.80;;
37753;SDS011;23596;52.520;13.464;2022-08-21T06:46:04;17.77;;;2.50;;
37753;SDS011;23596;52.520;13.464;2022-08-21T06:48:30;6.83;;;2.13;;
37753;SDS011;23596;52.520;13.464;2022-08-21T06:50:58;8.45;;;2.28;;
37753;SDS011;23596;52.520;13.464;2022-08-21T06:53:25;7.57;;;1.90;;
37753;SDS011;23596;52.520;13.464;2022-08-21T06:55:50;13.07;;;2.00;;
37753;SDS011;23596;52.520;13.464;2022-08-21T06:58:16;12.90;;;2.70;;
37753;SDS011;23596;52.520;13.464;2022-08-21T07:00:43;7.10;;;1.97;;
37753;SDS011;23596;52.520;13.464;2022-08-21T07:03:25;6.43;;;1.88;;
37753;SDS011;23596;52.520;13.464;2022-08-21T07:06:00;9.45;;;2.10;;
37753;SDS011;23596;52.520;13.464;2022-08-21T07:08:26;11.63;;;2.17;;
37753;SDS011;23596;52.520;13.464;2022-08-21T07:10:53;5.55;;;1.88;;
37753;SDS011;23596;52.520;13.464;2022-08-21T07:13:21;16.08;;;2.45;;
37753;SDS011;23596;52.520;13.464;2022-08-21T07:15:49;12.35;;;2.72;;
37753;SDS011;23596;52.520;13.464;2022-08-21T07:18:15;8.03;;;1.30;;
37753;SDS011;23596;52.520;13.464;2022-08-21T07:20:41;7.57;;;2.43;;
37753;SDS011;23596;52.520;13.464;2022-08-21T07:23:08;10.47;;;2.33;;
37753;SDS011;23596;52.520;13.464;2022-08-21T07:25:45;9.02;;;1.90;;
37753;SDS011;23596;52.520;13.464;2022-08-21T07:28:11;9.93;;;1.90;;
37753;SDS011;23596;52.520;13.464;2022-08-21T07:30:36;6.32;;;1.55;;
37753;SDS011;23596;52.520;13.464;2022-08-21T07:33:02;21.33;;;2.40;;
37753;SDS011;23596;52.520;13.464;2022-08-21T07:35:28;13.77;;;1.77;;
37753;SDS011;23596;52.520;13.464;2022-08-21T07:37:54;15.00;;;2.03;;
37753;SDS011;23596;52.520;13.464;2022-08-21T07:40:19;8.60;;;2.00;;
37753;SDS011;23596;52.520;13.464;2022-08-21T07:42:46;9.73;;;2.10;;
37753;SDS011;23596;52.520;13.464;2022-08-21T07:45:14;16.25;;;2.45;;
37753;SDS011;23596;52.520;13.464;2022-08-21T07:47:40;5.83;;;1.50;;
37753;SDS011;23596;52.520;13.464;2022-08-21T07:50:06;15.30;;;2.00;;
37753;SDS011;23596;52.520;13.464;2022-08-21T07:52:32;7.27;;;1.50;;
37753;SDS011;23596;52.520;13.464;2022-08-21T07:55:00;7.63;;;1.30;;
37753;SDS011;23596;52.520;13.464;2022-08-21T07:57:26;14.45;;;2.10;;
37753;SDS011;23596;52.520;13.464;2022-08-21T07:59:52;5.97;;;1.90;;
37753;SDS011;23596;52.520;13.464;2022-08-21T08:02:24;10.10;;;1.67;;
37753;SDS011;23596;52.520;13.464;2022-08-21T08:04:50;9.32;;;1.60;;
37753;SDS011;23596;52.520;13.464;2022-08-21T08:07:16;9.77;;;2.10;;
37753;SDS011;23596;52.520;13.464;2022-08-21T08:09:42;5.18;;;1.60;;
37753;SDS011;23596;52.520;13.464;2022-08-21T08:12:08;10.07;;;1.50;;
37753;SDS011;23596;52.520;13.464;2022-08-21T08:14:34;6.90;;;1.58;;
37753;SDS011;23596;52.520;13.464;2022-08-21T08:17:00;12.20;;;1.67;;
37753;SDS011;23596;52.520;13.464;2022-08-21T08:19:27;8.30;;;1.77;;
37753;SDS011;23596;52.520;13.464;2022-08-21T08:21:52;9.20;;;2.07;;
37753;SDS011;23596;52.520;13.464;2022-08-21T08:24:18;4.07;;;1.70;;
37753;SDS011;23596;52.520;13.464;2022-08-21T08:26:44;9.47;;;1.73;;
37753;SDS011;23596;52.520;13.464;2022-08-21T08:29:09;13.17;;;2.40;;
37753;SDS011;23596;52.520;13.464;2022-08-21T08:31:35;15.83;;;2.47;;
37753;SDS011;23596;52.520;13.464;2022-08-21T08:34:00;9.50;;;1.50;;
37753;SDS011;23596;52.520;13.464;2022-08-21T08:36:33;8.23;;;1.70;;
37753;SDS011;23596;52.520;13.464;2022-08-21T08:39:01;10.82;;;1.90;;
37753;SDS011;23596;52.520;13.464;2022-08-21T08:41:30;7.35;;;1.70;;
37753;SDS011;23596;52.520;13.464;2022-08-21T08:44:06;13.77;;;1.55;;
37753;SDS011;23596;52.520;13.464;2022-08-21T08:52:00;8.07;;;2.20;;
37753;SDS011;23596;52.520;13.464;2022-08-21T08:54:31;11.48;;;1.90;;
37753;SDS011;23596;52.520;13.464;2022-08-21T08:57:07;4.82;;;1.48;;
37753;SDS011;23596;52.520;13.464;2022-08-21T08:59:41;8.18;;;2.00;;
37753;SDS011;23596;52.520;13.464;2022-08-21T09:02:17;6.93;;;1.83;;
37753;SDS011;23596;52.520;13.464;2022-08-21T09:04:44;11.38;;;1.75;;
37753;SDS011;23596;52.520;13.464;2022-08-21T09:07:15;9.40;;;1.67;;
37753;SDS011;23596;52.520;13.464;2022-08-21T09:15:43;12.90;;;2.13;;
37753;SDS011;23596;52.520;13.464;2022-08-21T09:26:26;16.80;;;2.67;;
37753;SDS011;23596;52.520;13.464;2022-08-21T09:29:09;10.02;;;1.77;;
37753;SDS011;23596;52.520;13.464;2022-08-21T09:34:09;14.85;;;2.50;;
37753;SDS011;23596;52.520;13.464;2022-08-21T09:36:44;8.35;;;1.95;;
37753;SDS011;23596;52.520;13.464;2022-08-21T09:39:13;7.30;;;1.33;;
37753;SDS011;23596;52.520;13.464;2022-08-21T09:41:55;9.02;;;1.83;;
37753;SDS011;23596;52.520;13.464;2022-08-21T09:44:26;8.82;;;1.83;;
37753;SDS011;23596;52.520;13.464;2022-08-21T09:46:53;12.38;;;1.95;;
37753;SDS011;23596;52.520;13.464;2022-08-21T09:52:19;10.15;;;1.92;;
37753;SDS011;23596;52.520;13.464;2022-08-21T09:54:48;10.45;;;2.65;;
37753;SDS011;23596;52.520;13.464;2022-08-21T09:57:23;7.53;;;1.75;;
37753;SDS011;23596;52.520;13.464;2022-08-21T10:02:54;7.60;;;1.73;;
37753;SDS011;23596;52.520;13.464;2022-08-21T10:05:32;11.38;;;2.10;;
37753;SDS011;23596;52.520;13.464;2022-08-21T10:07:57;11.13;;;1.73;;
37753;SDS011;23596;52.520;13.464;2022-08-21T10:10:31;7.00;;;1.90;;
37753;SDS011;23596;52.520;13.464;2022-08-21T10:15:56;15.45;;;2.40;;
37753;SDS011;23596;52.520;13.464;2022-08-21T10:18:26;8.65;;;2.00;;
37753;SDS011;23596;52.520;13.464;2022-08-21T10:28:57;13.05;;;1.90;;
37753;SDS011;23596;52.520;13.464;2022-08-21T10:31:27;5.72;;;1.73;;
37753;SDS011;23596;52.520;13.464;2022-08-21T10:34:13;8.60;;;1.77;;
37753;SDS011;23596;52.520;13.464;2022-08-21T10:36:46;7.15;;;1.70;;
37753;SDS011;23596;52.520;13.464;2022-08-21T10:39:43;11.07;;;2.10;;
37753;SDS011;23596;52.520;13.464;2022-08-21T10:45:41;8.15;;;1.60;;
37753;SDS011;23596;52.520;13.464;2022-08-21T10:48:22;6.63;;;1.40;;
37753;SDS011;23596;52.520;13.464;2022-08-21T10:50:58;6.28;;;1.38;;
37753;SDS011;23596;52.520;13.464;2022-08-21T10:56:14;9.63;;;1.60;;
37753;SDS011;23596;52.520;13.464;2022-08-21T10:58:44;6.25;;;2.03;;
37753;SDS011;23596;52.520;13.464;2022-08-21T11:04:20;6.03;;;1.40;;
37753;SDS011;23596;52.520;13.464;2022-08-21T11:06:53;8.15;;;1.42;;
37753;SDS011;23596;52.520;13.464;2022-08-21T11:09:25;5.25;;;1.75;;
37753;SDS011;23596;52.520;13.464;2022-08-21T11:14:24;7.85;;;1.60;;
37753;SDS011;23596;52.520;13.464;2022-08-21T11:17:09;7.10;;;1.60;;
37753;SDS011;23596;52.520;13.464;2022-08-21T11:19:39;3.15;;;1.17;;
37753;SDS011;23596;52.520;13.464;2022-08-21T11:25:08;9.80;;;2.25;;
37753;SDS011;23596;52.520;13.464;2022-08-21T11:27:50;7.30;;;1.30;;
37753;SDS011;23596;52.520;13.464;2022-08-21T11:30:24;7.40;;;1.70;;
37753;SDS011;23596;52.520;13.464;2022-08-21T11:35:39;5.07;;;1.42;;
37753;SDS011;23596;52.520;13.464;2022-08-21T11:38:28;4.70;;;1.20;;
37753;SDS011;23596;52.520;13.464;2022-08-21T11:49:53;9.55;;;1.27;;
37753;SDS011;23596;52.520;13.464;2022-08-21T11:52:45;6.25;;;1.10;;
37753;SDS011;23596;52.520;13.464;2022-08-21T11:55:28;3.70;;;0.82;;
37753;SDS011;23596;52.520;13.464;2022-08-21T11:57:58;2.00;;;0.93;;
37753;SDS011;23596;52.520;13.464;2022-08-21T12:00:32;4.35;;;1.00;;
37753;SDS011;23596;52.520;13.464;2022-08-21T12:03:35;2.13;;;0.80;;
37753;SDS011;23596;52.520;13.464;2022-08-21T12:05:54;9.50;;;1.10;;
37753;SDS011;23596;52.520;13.464;2022-08-21T12:08:27;3.40;;;0.90;;
37753;SDS011;23596;52.520;13.464;2022-08-21T12:11:07;6.10;;;1.40;;
37753;SDS011;23596;52.520;13.464;2022-08-21T12:19:07;4.90;;;0.85;;
37753;SDS011;23596;52.520;13.464;2022-08-21T12:24:38;3.13;;;1.02;;
37753;SDS011;23596;52.520;13.464;2022-08-21T12:29:45;15.82;;;1.15;;
37753;SDS011;23596;52.520;13.464;2022-08-21T12:34:44;2.83;;;1.03;;
37753;SDS011;23596;52.520;13.464;2022-08-21T12:37:34;3.65;;;0.80;;
37753;SDS011;23596;52.520;13.464;2022-08-21T12:40:09;2.92;;;0.90;;
37753;SDS011;23596;52.520;13.464;2022-08-21T12:42:42;3.17;;;1.30;;
37753;SDS011;23596;52.520;13.464;2022-08-21T12:45:17;3.22;;;1.10;;
37753;SDS011;23596;52.520;13.464;2022-08-21T12:47:54;2.88;;;1.23;;
37753;SDS011;23596;52.520;13.464;2022-08-21T12:52:59;5.20;;;0.95;;
37753;SDS011;23596;52.520;13.464;2022-08-21T12:55:31;7.78;;;1.38;;
37753;SDS011;23596;52.520;13.464;2022-08-21T12:57:57;4.43;;;1.15;;
37753;SDS011;23596;52.520;13.464;2022-08-21T13:00:25;2.72;;;0.85;;
37753;SDS011;23596;52.520;13.464;2022-08-21T13:02:52;1.55;;;0.88;;
37753;SDS011;23596;52.520;13.464;2022-08-21T13:05:24;1.95;;;0.63;;
37753;SDS011;23596;52.520;13.464;2022-08-21T13:07:52;1.70;;;0.75;;
37753;SDS011;23596;52.520;13.464;2022-08-21T13:10:20;1.83;;;0.77;;
37753;SDS011;23596;52.520;13.464;2022-08-21T13:12:56;3.80;;;1.10;;
37753;SDS011;23596;52.520;13.464;2022-08-21T13:15:28;3.22;;;1.25;;
37753;SDS011;23596;52.520;13.464;2022-08-21T13:17:55;2.95;;;0.95;;
37753;SDS011;23596;52.520;13.464;2022-08-21T13:20:37;2.60;;;1.20;;
37753;SDS011;23596;52.520;13.464;2022-08-21T13:23:16;6.65;;;1.25;;
37753;SDS011;23596;52.520;13.464;2022-08-21T13:25:43;6.18;;;1.30;;
37753;SDS011;23596;52.520;13.464;2022-08-21T13:28:10;5.40;;;2.13;;
37753;SDS011;23596;52.520;13.464;2022-08-21T13:30:42;5.75;;;1.10;;
37753;SDS011;23596;52.520;13.464;2022-08-21T13:33:10;3.10;;;1.10;;
37753;SDS011;23596;52.520;13.464;2022-08-21T13:35:47;1.73;;;0.73;;
37753;SDS011;23596;52.520;13.464;2022-08-21T13:38:34;3.33;;;1.25;;
37753;SDS011;23596;52.520;13.464;2022-08-21T13:41:02;2.60;;;1.10;;
37753;SDS011;23596;52.520;13.464;2022-08-21T13:43:31;2.67;;;1.05;;
37753;SDS011;23596;52.520;13.464;2022-08-21T13:45:58;6.05;;;1.45;;
37753;SDS011;23596;52.520;13.464;2022-08-21T13:48:26;5.95;;;1.42;;
37753;SDS011;23596;52.520;13.464;2022-08-21T13:50:54;4.72;;;1.17;;
37753;SDS011;23596;52.520;13.464;2022-08-21T13:53:22;11.55;;;1.50;;
37753;SDS011;23596;52.520;13.464;2022-08-21T13:55:54;4.53;;;1.30;;
37753;SDS011;23596;52.520;13.464;2022-08-21T13:58:27;7.05;;;1.40;;
37753;SDS011;23596;52.520;13.464;2022-08-21T14:01:10;2.35;;;1.15;;
37753;SDS011;23596;52.520;13.464;2022-08-21T14:04:23;3.00;;;1.50;;
37753;SDS011;23596;52.520;13.464;2022-08-21T14:06:52;7.63;;;1.75;;
37753;SDS011;23596;52.520;13.464;2022-08-21T14:12:15;4.22;;;1.88;;
37753;SDS011;23596;52.520;13.464;2022-08-21T14:14:50;5.30;;;1.65;;
37753;SDS011;23596;52.520;13.464;2022-08-21T14:17:29;8.15;;;2.28;;
37753;SDS011;23596;52.520;13.464;2022-08-21T14:20:02;3.70;;;1.15;;
37753;SDS011;23596;52.520;13.464;2022-08-21T14:25:07;7.50;;;1.98;;
37753;SDS011;23596;52.520;13.464;2022-08-21T14:27:34;12.27;;;1.60;;
37753;SDS011;23596;52.520;13.464;2022-08-21T14:30:08;9.80;;;2.03;;
37753;SDS011;23596;52.520;13.464;2022-08-21T14:32:39;5.90;;;1.42;;
37753;SDS011;23596;52.520;13.464;2022-08-21T14:35:06;4.22;;;1.85;;
37753;SDS011;23596;52.520;13.464;2022-08-21T14:37:32;5.28;;;1.70;;
37753;SDS011;23596;52.520;13.464;2022-08-21T14:39:58;11.38;;;2.03;;
37753;SDS011;23596;52.520;13.464;2022-08-21T14:42:24;7.77;;;2.20;;
37753;SDS011;23596;52.520;13.464;2022-08-21T14:44:50;4.53;;;1.30;;
37753;SDS011;23596;52.520;13.464;2022-08-21T14:47:16;6.10;;;1.73;;
37753;SDS011;23596;52.520;13.464;2022-08-21T14:49:42;3.63;;;1.50;;
37753;SDS011;23596;52.520;13.464;2022-08-21T14:52:08;5.63;;;1.60;;
37753;SDS011;23596;52.520;13.464;2022-08-21T14:54:34;6.20;;;2.00;;
37753;SDS011;23596;52.520;13.464;2022-08-21T14:57:01;7.93;;;1.43;;
37753;SDS011;23596;52.520;13.464;2022-08-21T14:59:30;7.20;;;1.60;;
37753;SDS011;23596;52.520;13.464;2022-08-21T15:01:57;12.50;;;2.28;;
37753;SDS011;23596;52.520;13.464;2022-08-21T15:04:23;4.73;;;1.23;;
37753;SDS011;23596;52.520;13.464;2022-08-21T15:06:49;9.18;;;2.17;;
37753;SDS011;23596;52.520;13.464;2022-08-21T15:09:14;9.67;;;2.47;;
37753;SDS011;23596;52.520;13.464;2022-08-21T15:11:41;7.97;;;2.15;;
37753;SDS011;23596;52.520;13.464;2022-08-21T15:14:07;8.00;;;2.47;;
37753;SDS011;23596;52.520;13.464;2022-08-21T15:16:37;7.65;;;2.60;;
37753;SDS011;23596;52.520;13.464;2022-08-21T15:19:03;6.50;;;1.70;;
37753;SDS011;23596;52.520;13.464;2022-08-21T15:21:28;10.47;;;2.27;;
37753;SDS011;23596;52.520;13.464;2022-08-21T15:23:54;5.67;;;2.10;;
37753;SDS011;23596;52.520;13.464;2022-08-21T15:26:20;12.23;;;3.10;;
37753;SDS011;23596;52.520;13.464;2022-08-21T15:28:47;14.23;;;2.20;;
37753;SDS011;23596;52.520;13.464;2022-08-21T15:31:13;7.57;;;1.80;;
37753;SDS011;23596;52.520;13.464;2022-08-21T15:33:38;4.53;;;1.80;;
37753;SDS011;23596;52.520;13.464;2022-08-21T15:36:04;2.73;;;1.23;;
37753;SDS011;23596;52.520;13.464;2022-08-21T15:38:30;7.90;;;2.30;;
37753;SDS011;23596;52.520;13.464;2022-08-21T15:40:55;4.20;;;1.67;;
37753;SDS011;23596;52.520;13.464;2022-08-21T15:43:25;6.67;;;1.40;;
37753;SDS011;23596;52.520;13.464;2022-08-21T15:45:52;7.13;;;1.73;;
37753;SDS011;23596;52.520;13.464;2022-08-21T15:48:19;6.78;;;2.03;;
37753;SDS011;23596;52.520;13.464;2022-08-21T15:50:44;6.73;;;2.23;;
37753;SDS011;23596;52.520;13.464;2022-08-21T15:53:10;3.50;;;1.53;;
37753;SDS011;23596;52.520;13.464;2022-08-21T15:55:35;6.40;;;1.80;;
37753;SDS011;23596;52.520;13.464;2022-08-21T15:58:01;6.77;;;1.83;;
37753;SDS011;23596;52.520;13.464;2022-08-21T16:00:29;7.18;;;2.08;;
37753;SDS011;23596;52.520;13.464;2022-08-21T16:02:57;8.13;;;2.25;;
37753;SDS011;23596;52.520;13.464;2022-08-21T16:05:24;9.50;;;1.70;;
37753;SDS011;23596;52.520;13.464;2022-08-21T16:07:50;3.08;;;1.83;;
37753;SDS011;23596;52.520;13.464;2022-08-21T16:10:18;8.93;;;1.93;;
37753;SDS011;23596;52.520;13.464;2022-08-21T16:13:06;3.97;;;1.85;;